Weather History for Colby, KS

Change the Weather History Date:

Thursday, February 14, 2013

  Actual Average (KGLD) Record (KGLD)
Temperature  
Mean Temperature 27 °F 32 °F  
Max Temperature 35 °F 45 °F 75 °F (1999)
Min Temperature 19 °F 19 °F -12 °F (2007)
Degree Days  
Heating Degree Days 38 33  
Month to date heating degree days 480  
Since 1 July heating degree days 3983  
Cooling Degree Days 0 0  
Month to date cooling degree days 0  
Year to date cooling degree days 0  
Moisture  
Dew Point 28 °F    
Average Humidity 91    
Maximum Humidity 100    
Minimum Humidity 75    
Precipitation  
Precipitation 0.00 in 0.02 in 0.29 in (1964)
Month to date precipitation 0.22  
Year to date precipitation 0.60  
Snow  
Snow 0.00 in 0.20 in - ()
Month to date snowfall 3.0  
Since 1 July snowfall 21.6  
Snow Depth -    
Sea Level Pressure  
Sea Level Pressure 30.13 in    
Wind  
Wind Speed 11 mph (NW)    
Max Wind Speed 23 mph    
Max Gust Speed 26 mph    
Visibility 9 miles    
Events Rain , Snow    
T = Trace of Precipitation, MM = Missing Value Source: NWS Daily Summary

Daily Weather History Graph

Daily Weather History Graph

Search for Another Location

Airport:

Trip Planner

Search our weather history database for the weather conditions in past years. The results will help you decide how hot, cold, wet, or windy it might be!

Date:

Astronomy

Feb. 14, 2013 Rise Set
Actual Time 7:37 AM CST 6:20 PM CST
Civil Twilight 7:09 AM CST 6:47 PM CST
Nautical Twilight 6:38 AM CST 7:19 PM CST
Astronomical Twilight 6:06 AM CST 7:50 PM CST
Moon 9:41 AM CST (2/14) 11:23 PM CST (2/14)
Length of Visible Light 11h 38m
Length of Day
10h 43m
Waxing Crescent, 22% of the Moon is Illuminated
Feb 14
Waxing Crescent
Feb 17
First Quarter
Feb 25
Full
Mar 4
Last Quarter
Mar 11
New

Hourly Weather History & Observations

Time (CST) Temp. Windchill Dew Point Humidity Pressure Visibility Wind Dir Wind Speed Gust Speed Precip Events Conditions
12:15 AM 32.0 °F 22.5 °F 26.6 °F 80% 29.98 in 10.0 mi WNW 12.7 mph - N/A   Clear
12:35 AM 32.0 °F 23.0 °F 26.6 °F 80% 29.98 in 10.0 mi WNW 11.5 mph - N/A   Clear
12:55 AM 30.2 °F 20.8 °F 26.6 °F 86% 29.99 in 10.0 mi West 11.5 mph - N/A   Clear
1:15 AM 32.0 °F 21.6 °F 26.6 °F 80% 30.01 in 10.0 mi WNW 15.0 mph - N/A   Clear
1:35 AM 32.0 °F 22.5 °F 28.4 °F 87% 30.01 in 10.0 mi WNW 12.7 mph - N/A   Clear
1:55 AM 30.2 °F 21.3 °F 28.4 °F 93% 30.01 in 10.0 mi NW 10.4 mph - N/A   Clear
2:15 AM 30.2 °F 20.8 °F 28.4 °F 93% 30.01 in 10.0 mi NW 11.5 mph - N/A   Clear
2:35 AM 30.2 °F 22.6 °F 26.6 °F 86% 30.01 in 10.0 mi NW 8.1 mph - N/A   Clear
2:55 AM 28.4 °F 19.7 °F 26.6 °F 93% 30.01 in 10.0 mi NW 9.2 mph - N/A   Clear
3:15 AM 26.6 °F 16.2 °F 26.6 °F 100% 30.01 in 10.0 mi West 11.5 mph - N/A   Clear
3:35 AM 26.6 °F 16.2 °F 26.6 °F 100% 30.01 in 10.0 mi West 11.5 mph - N/A   Clear
3:55 AM 28.4 °F 18.5 °F 26.6 °F 93% 30.00 in 10.0 mi WNW 11.5 mph - N/A   Clear
4:15 AM 28.4 °F 19.1 °F 26.6 °F 93% 30.00 in 10.0 mi WNW 10.4 mph - N/A   Clear
4:35 AM 28.4 °F 18.5 °F 26.6 °F 93% 30.00 in 10.0 mi WNW 11.5 mph - N/A   Clear
4:55 AM 28.4 °F 19.7 °F 26.6 °F 93% 30.00 in 10.0 mi NW 9.2 mph - N/A   Clear
5:15 AM 30.2 °F 21.3 °F 28.4 °F 93% 29.99 in 10.0 mi NW 10.4 mph - N/A   Clear
5:35 AM 28.4 °F 19.7 °F 26.6 °F 93% 30.01 in 10.0 mi NW 9.2 mph - N/A   Clear
5:55 AM 28.4 °F 19.7 °F 26.6 °F 93% 30.01 in 10.0 mi NW 9.2 mph - N/A   Clear
6:15 AM 28.4 °F 21.2 °F 26.6 °F 93% 30.02 in 10.0 mi WNW 6.9 mph - N/A   Clear
6:35 AM 26.6 °F 19.1 °F 26.6 °F 100% 30.03 in 10.0 mi SSW 6.9 mph - N/A   Clear
6:55 AM 28.4 °F 20.4 °F 26.6 °F 93% 30.03 in 10.0 mi West 8.1 mph - N/A   Clear
7:15 AM 26.6 °F 18.2 °F 26.6 °F 100% 30.04 in 10.0 mi West 8.1 mph - N/A   Clear
7:35 AM 30.2 °F 22.6 °F 28.4 °F 93% 30.06 in 10.0 mi WNW 8.1 mph - N/A   Clear
7:55 AM 30.2 °F 22.6 °F 28.4 °F 93% 30.06 in 10.0 mi WNW 8.1 mph - N/A   Scattered Clouds
8:15 AM 30.2 °F 21.3 °F 28.4 °F 93% 30.07 in 10.0 mi WNW 10.4 mph - N/A   Overcast
8:35 AM 32.0 °F 24.8 °F 30.2 °F 93% 30.07 in 10.0 mi NW 8.1 mph - N/A   Overcast
8:55 AM 32.0 °F 24.8 °F 30.2 °F 93% 30.08 in 10.0 mi WNW 8.1 mph - N/A   Overcast
9:15 AM 32.0 °F 23.6 °F 30.2 °F 93% 30.09 in 10.0 mi WNW 10.4 mph - N/A   Overcast
9:35 AM 33.8 °F 25.8 °F 30.2 °F 87% 30.10 in 10.0 mi West 10.4 mph - N/A   Overcast
9:55 AM 33.8 °F 25.8 °F 30.2 °F 87% 30.11 in 10.0 mi WNW 10.4 mph - N/A   Overcast
10:15 AM 35.6 °F 26.6 °F 32.0 °F 87% 30.12 in 10.0 mi WNW 13.8 mph - N/A   Overcast
10:35 AM 35.6 °F 27.1 °F 32.0 °F 87% 30.13 in 10.0 mi WNW 12.7 mph - N/A   Overcast
10:55 AM 35.6 °F 26.2 °F 32.0 °F 87% 30.14 in 7.0 mi WNW 15.0 mph - N/A Snow Light Snow
11:15 AM 33.8 °F 26.4 °F 33.8 °F 100% 30.14 in 2.0 mi NW 9.2 mph - N/A Snow Light Snow
11:35 AM 35.6 °F 28.0 °F 33.8 °F 93% 30.14 in 4.0 mi WNW 10.4 mph - N/A Snow Light Snow
11:55 AM 35.6 °F 28.0 °F 33.8 °F 93% 30.15 in 7.0 mi NW 10.4 mph - N/A   Light Drizzle
12:15 PM 35.6 °F 28.6 °F 35.6 °F 100% 30.14 in 4.0 mi NW 9.2 mph - N/A Rain Light Rain
12:35 PM 35.6 °F 29.2 °F 35.6 °F 100% 30.14 in 3.0 mi NNW 8.1 mph - N/A Snow Light Snow
12:55 PM 35.6 °F 29.9 °F 35.6 °F 100% 30.14 in 10.0 mi WNW 6.9 mph - N/A   Light Drizzle
1:15 PM 33.8 °F 27.0 °F 33.8 °F 100% 30.14 in 2.0 mi NW 8.1 mph - N/A Rain Light Rain
1:35 PM 33.8 °F 24.3 °F 33.8 °F 100% 30.14 in 0.8 mi NNW 13.8 mph 18.4 mph N/A Snow Light Snow
1:55 PM 33.8 °F 24.3 °F 33.8 °F 100% 30.15 in 1.5 mi North 13.8 mph 19.6 mph N/A Snow Light Snow
2:15 PM 33.8 °F 23.9 °F 33.8 °F 100% 30.15 in 2.5 mi North 15.0 mph - N/A Snow Light Snow
2:35 PM 33.8 °F 22.5 °F 33.8 °F 100% 30.16 in 2.0 mi NNW 19.6 mph - N/A Snow Light Snow
2:55 PM 33.8 °F 23.5 °F 33.8 °F 100% 30.17 in 4.0 mi North 16.1 mph 23.0 mph N/A Rain Light Rain
3:15 PM 33.8 °F 27.0 °F 33.8 °F 100% 30.17 in 10.0 mi NNW 8.1 mph - N/A   Overcast
3:35 PM 35.6 °F 28.0 °F 33.8 °F 93% 30.17 in 10.0 mi North 10.4 mph - N/A   Overcast
3:55 PM 35.6 °F 28.0 °F 32.0 °F 87% 30.18 in 10.0 mi NNW 10.4 mph - N/A   Overcast
4:15 PM 35.6 °F 26.2 °F 32.0 °F 87% 30.19 in 10.0 mi NNW 15.0 mph 20.7 mph N/A   Overcast
4:35 PM 35.6 °F 24.0 °F 30.2 °F 81% 30.20 in 10.0 mi NNW 23.0 mph - N/A   Overcast
4:55 PM 33.8 °F 22.2 °F 28.4 °F 81% 30.20 in 10.0 mi NNW 20.7 mph 26.5 mph N/A   Overcast
5:15 PM 33.8 °F 23.9 °F 28.4 °F 81% 30.21 in 10.0 mi NNW 15.0 mph - N/A   Overcast
5:35 PM 33.8 °F 24.3 °F 28.4 °F 81% 30.21 in 10.0 mi NW 13.8 mph - N/A   Overcast
5:55 PM 33.8 °F 23.9 °F 30.2 °F 87% 30.22 in 10.0 mi NW 15.0 mph - N/A   Overcast
6:15 PM 33.8 °F 23.9 °F 30.2 °F 87% 30.23 in 10.0 mi NW 15.0 mph - N/A   Overcast
6:35 PM 32.0 °F 22.1 °F 28.4 °F 87% 30.23 in 10.0 mi NW 13.8 mph - N/A   Overcast
6:55 PM 32.0 °F 22.5 °F 28.4 °F 87% 30.24 in 10.0 mi NW 12.7 mph - N/A   Overcast
7:15 PM 32.0 °F 23.6 °F 28.4 °F 87% 30.25 in 10.0 mi NW 10.4 mph - N/A   Mostly Cloudy
7:35 PM 32.0 °F 24.2 °F 26.6 °F 80% 30.26 in 10.0 mi North 9.2 mph - N/A   Scattered Clouds
7:55 PM 32.0 °F 24.2 °F 26.6 °F 80% 30.27 in 10.0 mi North 9.2 mph - N/A   Clear
8:15 PM 30.2 °F 23.4 °F 26.6 °F 86% 30.27 in 10.0 mi North 6.9 mph - N/A   Clear
8:35 PM 30.2 °F 22.6 °F 23.0 °F 75% 30.27 in 10.0 mi NNW 8.1 mph - N/A   Clear
8:55 PM 30.2 °F 23.4 °F 23.0 °F 75% 30.28 in 10.0 mi NNW 6.9 mph - N/A   Clear
9:15 PM 26.6 °F 21.2 °F 23.0 °F 86% 30.28 in 10.0 mi NNW 4.6 mph - N/A   Clear
9:55 PM 23.0 °F 17.0 °F 21.2 °F 93% 30.29 in 10.0 mi WNW 4.6 mph - N/A   Scattered Clouds
10:15 PM 21.2 °F 14.9 °F 21.2 °F 100% 30.29 in 10.0 mi NNW 4.6 mph - N/A   Clear
10:35 PM 23.0 °F 17.0 °F 21.2 °F 93% 30.29 in 10.0 mi NW 4.6 mph - N/A   Clear
10:55 PM 21.2 °F 13.6 °F 19.4 °F 93% 30.30 in 10.0 mi West 5.8 mph - N/A   Clear
11:15 PM 19.4 °F 9.5 °F 19.4 °F 100% 30.31 in 10.0 mi WNW 8.1 mph - N/A   Clear
11:35 PM 19.4 °F 10.4 °F 19.4 °F 100% 30.31 in 10.0 mi WNW 6.9 mph - N/A   Clear
11:55 PM 21.2 °F 10.9 °F 19.4 °F 93% 30.32 in 10.0 mi West 9.2 mph - N/A   Clear